Calne, United Kingdom
Current Conditions -  °F | °C
As of 7:58 AM on Friday 24 Oct 2014 (Local Time) from EGVA Reporting Station
Overcast Overcast  
Wind Chill: 55°   Ceiling: 2000
Heat Index: 55°   Visibility: 6mi
Dew Point: 54°   Wind: 9mph
Humidity: 96%   Direction: 220°SW
Pressure: 29.94"   Gusts: NA
Location:  51.44°N, 2.01°W
Report Text: EGVA 240658Z AUTO 22008KT 9999 FEW012 OVC020 13/12 A2994 RMK AO2 SLP142 P2400 T01280121
Loading
Personal Weather Stations






























Interactive Weather Map
Tropical Storm Tracking
New forecast layout! Learn more

10-Day Weather Forecast

Advertisements
Track Severe Weather on mobile